Home > Products > Valid Products > TAF

000
FTUS46 KSEW 140545
TAFBFI
TAF
KBFI 140545Z 1406/1506 16010KT 4SM BR SCT008 OVC015
      TEMPO 1410/1414 2SM BR OVC008
     FM141800 16008KT P6SM SCT008 OVC015
     FM142300 19010KT P6SM -RA BKN015 OVC025=



000
FTUS46 KSEW 140545
TAFOLM
TAF
KOLM 140545Z 1406/1506 19012KT 4SM -RA BR OVC011
     FM140900 19012KT 3SM -RA BR OVC006
     FM141500 19006KT 5SM BR SCT006 OVC011
     FM142100 19010KT 5SM -RA SCT008 BKN012 OVC020=



000
FTUS46 KSEW 140545
TAFCLM
TAF
KCLM 140545Z 1406/1506 VRB03KT 4SM BR SCT003
      TEMPO 1406/1410 1/2SM FG BKN003
     FM141000 VRB03KT 1SM BR OVC003
     FM141600 VRB03KT 4SM BR SCT003 BKN012 OVC020
     FM142300 VRB03KT P6SM -RA BKN015 OVC025=



000
FTUS46 KSEW 140545
TAFBLI
TAF
KBLI 140545Z 1406/1506 16018G28KT P6SM BKN030 OVC045
     FM141100 17010KT P6SM SCT015 OVC025
     FM142300 15014KT P6SM -RA SCT015 OVC025=



000
FTUS46 KSEW 140545
TAFSEA
TAF
KSEA 140545Z 1406/1512 17012KT 4SM BR OVC012
     FM141000 19008KT P6SM SCT006 OVC012
      TEMPO 1410/1414 3SM BR OVC006
     FM142300 21012KT P6SM -RA SCT008 BKN015 OVC030
     FM150900 21012KT P6SM SCT015 BKN025 OVC040=



000
FTUS46 KSEW 140545
TAFHQM
TAF
KHQM 140545Z 1406/1506 21010KT 5SM BR SCT003 BKN008 OVC015
      TEMPO 1406/1410 2SM BR BKN003 OVC006
     FM142000 19010KT 4SM -RA SCT006 OVC011=



000
FTUS46 KSEW 140545
TAFPAE
TAF
KPAE 140545Z 1406/1506 17015G25KT P6SM OVC006
     FM140900 17010KT 4SM BR OVC006
     FM141700 17010KT P6SM SCT006 BKN011 OVC020
     FM142300 17014KT P6SM -RA SCT008 BKN015 OVC025=



000
FTUS46 KSEW 140311 AAB
TAFSEA
TAF AMD
KSEA 140311Z 1403/1506 17012KT P6SM SCT015 OVC025
     FM140900 19012G20KT 6SM -RA BR SCT008 OVC015
     FM141400 19008KT P6SM VCSH SCT007 OVC014
     FM142300 21011G20KT P6SM -RA BKN014 OVC040=



000
FTUS46 KSEW 140217 AAA
TAFBFI
TAF AMD
KBFI 140217Z 1402/1424 16010KT P6SM -RA FEW018 BKN030 OVC050
     FM140400 17010G18KT P6SM VCSH SCT015 OVC025
     FM140900 19012G20KT 6SM -RA BR SCT010 OVC018
     FM141400 16007KT P6SM VCSH SCT009 OVC016
     FM142300 17008KT P6SM -RA BKN015 OVC040=



000
FTUS46 KSEW 140217 AAA
TAFBFI
TAF AMD
KBFI 140217Z 1402/1424 16010KT P6SM -RA FEW018 BKN030 OVC050
     FM140400 17010G18KT P6SM VCSH SCT015 OVC025
     FM140900 19012G20KT 6SM -RA BR SCT010 OVC018
     FM141400 16007KT P6SM VCSH SCT009 OVC016
     FM142300 17008KT P6SM -RA BKN015 OVC040=



000
FTUS46 KSEW 140216 AAA
TAFCLM
TAF AMD
KCLM 140216Z 1402/1424 VRB03KT 6SM -RA BR SCT008 OVC050
      TEMPO 1402/1405 4SM -RA BR BKN008 OVC035
     FM141100 VRB03KT P6SM -RA SCT010 BKN030 OVC050
     FM141600 28009KT P6SM VCSH SCT030 BKN090=



000
FTUS46 KSEW 140215 AAA
TAFOLM
TAF AMD
KOLM 140215Z 1402/1424 19012KT P6SM -RA SCT015 OVC035
      TEMPO 1402/1405 19015G25KT 4SM -RA BR BKN015 OVC030
     FM141100 19007KT 6SM -RA BR OVC018=



000
FTUS46 KSEW 140213 AAA
TAFHQM
TAF AMD
KHQM 140213Z 1402/1424 19020KT 5SM -RA BR SCT015 OVC030
      TEMPO 1402/1404 19020G30KT 2SM -RA BR BKN015 OVC030
     FM140400 21011G18KT 5SM -RA BR SCT010 OVC018=



000
FTUS46 KSEW 140211 AAA
TAFSEA
TAF AMD
KSEA 140211Z 1402/1506 17012KT P6SM -RA FEW015 OVC035
     FM140400 19013G21KT P6SM VCSH SCT012 OVC020
     FM140900 19012G20KT 6SM -RA BR SCT008 OVC015
     FM141400 19008KT P6SM VCSH SCT007 OVC014
     FM142300 21011G20KT P6SM -RA BKN014 OVC040=



000
FTUS46 KSEW 132351
TAFHQM
TAF
KHQM 132351Z 1400/1424 16016G26KT 3SM -RA BR OVC014
     FM140200 21011G18KT 5SM -RA BR SCT010 OVC018=



000
FTUS46 KSEW 132351
TAFCLM
TAF
KCLM 132351Z 1400/1424 05004KT 6SM -RA BR SCT015 OVC040
     FM140100 29006KT P6SM VCSH SCT030 BKN045 OVC060
     FM141100 VRB03KT P6SM -RA SCT010 BKN030 OVC050
     FM141600 28009KT P6SM VCSH SCT030 BKN090=



000
FTUS46 KSEW 132351
TAFOLM
TAF
KOLM 132351Z 1400/1424 19014G20KT 3SM RA BR SCT010 OVC025
     FM140200 19011G18KT P6SM -RA OVC020
     FM141100 19007KT 6SM -RA BR OVC018=



000
FTUS46 KSEW 132351
TAFCLM
TAF
KCLM 132351Z 1400/1424 05004KT 6SM -RA BR SCT015 OVC040
     FM140100 29006KT P6SM VCSH SCT030 BKN045 OVC060
     FM141100 VRB03KT P6SM -RA SCT010 BKN030 OVC050
     FM141600 28009KT P6SM VCSH SCT030 BKN090=



000
FTUS46 KSEW 132351
TAFHQM
TAF
KHQM 132351Z 1400/1424 16016G26KT 3SM -RA BR OVC014
     FM140200 21011G18KT 5SM -RA BR SCT010 OVC018=



000
FTUS46 KSEW 132351
TAFOLM
TAF
KOLM 132351Z 1400/1424 19014G20KT 3SM RA BR SCT010 OVC025
     FM140200 19011G18KT P6SM -RA OVC020
     FM141100 19007KT 6SM -RA BR OVC018=



000
FTUS46 KSEW 132338
TAFBFI
TAF
KBFI 132338Z 1400/1424 16010KT 6SM -RA BR SCT020 OVC035
     FM140400 17010G18KT P6SM VCSH SCT015 OVC025
     FM140900 19012G20KT 6SM -RA BR SCT010 OVC018
     FM141400 16007KT P6SM VCSH SCT009 OVC016
     FM142300 17008KT P6SM -RA BKN015 OVC040=



000
FTUS46 KSEW 132338
TAFSEA
TAF
KSEA 132338Z 1400/1506 18013G21KT 6SM -RA BR SCT020 OVC030
     FM140400 19013G21KT P6SM VCSH SCT012 OVC020
     FM140900 19012G20KT 6SM -RA BR SCT008 OVC015
     FM141400 19008KT P6SM VCSH SCT007 OVC014
     FM142300 21011G20KT P6SM -RA BKN014 OVC040=



000
FTUS46 KSEW 132338
TAFPAE
TAF
KPAE 132338Z 1400/1424 18016G26KT P6SM -RA SCT012 BKN020 OVC035
     FM140200 18015G24KT P6SM VCSH SCT012 OVC018
     FM140900 17009KT 6SM -RA BR SCT008 OVC012
     FM141400 18011G18KT P6SM VCSH BKN012 OVC030=



000
FTUS46 KSEW 132338
TAFBLI
TAF
KBLI 132338Z 1400/1424 16018G28KT P6SM -RA OVC025
     FM140300 16018G28KT P6SM VCSH OVC020
     FM141300 17007KT 6SM -RA BR OVC018=



000
FTUS46 KSEW 132338
TAFSEA
TAF
KSEA 132338Z 1400/1506 18013G21KT 6SM -RA BR SCT020 OVC030
     FM140400 19013G21KT P6SM VCSH SCT012 OVC020
     FM140900 19012G20KT 6SM -RA BR SCT008 OVC015
     FM141400 19008KT P6SM VCSH SCT007 OVC014
     FM142300 21011G20KT P6SM -RA BKN014 OVC040=



000
FTUS46 KSEW 132338
TAFBLI
TAF
KBLI 132338Z 1400/1424 16018G28KT P6SM -RA OVC025
     FM140300 16018G28KT P6SM VCSH OVC020
     FM141300 17007KT 6SM -RA BR OVC018=



000
FTUS46 KSEW 132338
TAFBFI
TAF
KBFI 132338Z 1400/1424 16010KT 6SM -RA BR SCT020 OVC035
     FM140400 17010G18KT P6SM VCSH SCT015 OVC025
     FM140900 19012G20KT 6SM -RA BR SCT010 OVC018
     FM141400 16007KT P6SM VCSH SCT009 OVC016
     FM142300 17008KT P6SM -RA BKN015 OVC040=



000
FTUS46 KSEW 132338
TAFPAE
TAF
KPAE 132338Z 1400/1424 18016G26KT P6SM -RA SCT012 BKN020 OVC035
     FM140200 18015G24KT P6SM VCSH SCT012 OVC018
     FM140900 17009KT 6SM -RA BR SCT008 OVC012
     FM141400 18011G18KT P6SM VCSH BKN012 OVC030=



000
FTUS46 KSEW 132106 AAA
TAFSEA
TAF AMD
KSEA 132106Z 1321/1424 18012G20KT P6SM -RA SCT025 BKN035 OVC045
     FM132200 18014G22KT 5SM -RA BR SCT020 OVC030
     FM140300 19014G22KT P6SM -RA SCT012 OVC018
     FM140900 19012G20KT 6SM -RA BR SCT008 OVC012=



000
FTUS46 KSEW 131753
TAFCLM
TAF
KCLM 131753Z 1318/1418 08005KT P6SM OVC090
     FM132100 06005KT 6SM -RA BR SCT015 OVC060
     FM140100 29007KT P6SM VCSH SCT030 BKN050 OVC080
     FM141200 10004KT 6SM -RA BR SCT012 BKN035 OVC050=



000
FTUS46 KSEW 131753
TAFHQM
TAF
KHQM 131753Z 1318/1418 12012G20KT 4SM -RA BR OVC020
     FM132000 16016G26KT 2SM RA BR OVC010
     FM140500 24011G20KT 5SM -RA BR SCT010 OVC018
     FM141200 24010KT 3SM -RA BR SCT006 OVC010=



000
FTUS46 KSEW 131753
TAFOLM
TAF
KOLM 131753Z 1318/1418 22005KT P6SM SCT012 BKN040 OVC100
     FM132000 20008KT P6SM -RA SCT015 OVC035
     FM132200 19014G20KT 4SM -RA BR SCT015 OVC030
     FM140400 19011G18KT 6SM -RA BR OVC012=



000
FTUS46 KSEW 131753
TAFCLM
TAF
KCLM 131753Z 1318/1418 08005KT P6SM OVC090
     FM132100 06005KT 6SM -RA BR SCT015 OVC060
     FM140100 29007KT P6SM VCSH SCT030 BKN050 OVC080
     FM141200 10004KT 6SM -RA BR SCT012 BKN035 OVC050=



000
FTUS46 KSEW 131753
TAFHQM
TAF
KHQM 131753Z 1318/1418 12012G20KT 4SM -RA BR OVC020
     FM132000 16016G26KT 2SM RA BR OVC010
     FM140500 24011G20KT 5SM -RA BR SCT010 OVC018
     FM141200 24010KT 3SM -RA BR SCT006 OVC010=



000
FTUS46 KSEW 131753
TAFOLM
TAF
KOLM 131753Z 1318/1418 22005KT P6SM SCT012 BKN040 OVC100
     FM132000 20008KT P6SM -RA SCT015 OVC035
     FM132200 19014G20KT 4SM -RA BR SCT015 OVC030
     FM140400 19011G18KT 6SM -RA BR OVC012=



000
FTUS46 KSEW 131738
TAFSEA
TAF
KSEA 131738Z 1318/1424 19012KT P6SM SCT025 OVC120
     FM132000 18012KT P6SM -RA SCT025 OVC035
     FM132200 18014G22KT 5SM -RA BR SCT020 OVC030
     FM140300 19014G22KT P6SM -RA SCT012 OVC018
     FM140900 19012G20KT 6SM -RA BR SCT008 OVC012=



000
FTUS46 KSEW 131738
TAFBFI
TAF
KBFI 131738Z 1318/1418 16008KT P6SM SCT030 OVC120
     FM132000 16009KT P6SM -RA SCT030 OVC040
     FM132200 16010KT 5SM -RA BR SCT020 OVC030
     FM140300 17011G18KT P6SM -RA SCT015 OVC020
     FM140900 17009KT 6SM -RA BR SCT010 OVC015=



000
FTUS46 KSEW 131738
TAFBLI
TAF
KBLI 131738Z 1318/1418 16010KT P6SM SCT030 BKN045
     FM132100 16014G24KT 6SM -RA BR OVC040
     FM140400 16018G30KT P6SM VCSH OVC020
     FM141000 16010KT 6SM -RA BR OVC015=



000
FTUS46 KSEW 131738
TAFPAE
TAF
KPAE 131738Z 1318/1418 18014G22KT P6SM SCT010 BKN020 OVC100
     FM132000 16012G20KT P6SM -RA SCT015 OVC030
     FM132200 17016G26KT 6SM -RA BR SCT012 BKN020 OVC030
     FM140200 18018G26KT P6SM VCSH SCT012 OVC020
     FM140900 17010KT 6SM -RA BR OVC012=



000
FTUS46 KSEW 131400 AAB
TAFSEA
TAF AMD
KSEA 131400Z 1314/1418 18014KT P6SM SCT020 BKN030
     FM131600 18010KT P6SM SCT030 BKN050
     FM132000 15008KT P6SM -RA OVC040
      TEMPO 1400/1404 4SM -RA
     FM140400 17012KT 4SM -RA SCT010 OVC020
     FM140900 18010KT 5SM -RA BKN010=



000
FTUS46 KSEW 131359 AAA
TAFSEA
TAF AMD
KSEA 131359Z 1314/1418 18014KT P6SM SCT025 BKN045
     FM131600 18010KT P6SM SCT030 BKN050
     FM132000 15008KT P6SM -RA OVC040
      TEMPO 1400/1404 4SM -RA
     FM140400 17012KT 4SM -RA SCT010 OVC020
     FM140900 18010KT 5SM -RA BKN010=



000
FTUS46 KSEW 131359 AAA
TAFSEA
TAF AMD
KSEA 131359Z 1314/1418 18014KT P6SM SCT025 BKN045
     FM131600 18010KT P6SM SCT030 BKN050
     FM132000 15008KT P6SM -RA OVC040
      TEMPO 1400/1404 4SM -RA
     FM140400 17012KT 4SM -RA SCT010 OVC020
     FM140900 18010KT 5SM -RA BKN010=



000
FTUS46 KSEW 131133
TAFSEA
TAF
KSEA 131133Z 1312/1418 18014KT P6SM SCT025 BKN045
      TEMPO 1312/1316 -SHRA BKN025 OVC045
     FM131600 18010KT P6SM SCT030 BKN050
     FM132000 15008KT P6SM -RA OVC040
      TEMPO 1400/1404 4SM -RA
     FM140400 17012KT 4SM -RA SCT010 OVC020=



000
FTUS46 KSEW 131133
TAFBFI
TAF
KBFI 131133Z 1312/1412 16010KT P6SM SCT030 BKN050
      TEMPO 1312/1316 -SHRA BKN030 OVC050
     FM132000 14008KT P6SM -RA OVC045
      TEMPO 1400/1404 5SM -RA
     FM140400 16010KT 5SM -RA SCT015 OVC025=



000
FTUS46 KSEW 131133
TAFBLI
TAF
KBLI 131133Z 1312/1412 12008KT P6SM SCT025 BKN045
      TEMPO 1312/1315 -SHRA BKN025 OVC045
     FM131700 06008KT P6SM SCT030 BKN050
     FM132000 12008KT P6SM -RA OVC040
     FM140100 15014G24KT 4SM -RA SCT010 OVC020=



000
FTUS46 KSEW 131133
TAFPAE
TAF
KPAE 131133Z 1312/1412 19012G18KT P6SM SCT022 BKN040
      TEMPO 1312/1315 -SHRA BKN022 OVC040
     FM131500 17012KT P6SM SCT025 BKN045
     FM132000 16012G20KT P6SM -RA OVC040
     FM140200 16012G20KT 5SM -RA SCT010 OVC018=



000
FTUS46 KSEW 131133
TAFHQM
TAF
KHQM 131133Z 1312/1412 21014KT P6SM SCT020 BKN045
     FM131800 16012KT P6SM -RA OVC035
     FM132200 16015G25KT 3SM -RA BR SCT006 OVC011
     FM140400 18012G18KT 3SM -RA BR OVC006=



000
FTUS46 KSEW 131133
TAFBFI
TAF
KBFI 131133Z 1312/1412 16010KT P6SM SCT030 BKN050
      TEMPO 1312/1316 -SHRA BKN030 OVC050
     FM132000 14008KT P6SM -RA OVC045
      TEMPO 1400/1404 5SM -RA
     FM140400 16010KT 5SM -RA SCT015 OVC025=



000
FTUS46 KSEW 131133
TAFCLM
TAF
KCLM 131133Z 1312/1412 VRB03KT P6SM SCT040 BKN070
     FM131900 VRB03KT P6SM -RA OVC045
     FM132300 VRB03KT 4SM -RA SCT008 OVC015=



000
FTUS46 KSEW 131133
TAFOLM
TAF
KOLM 131133Z 1312/1412 21006KT P6SM VCSH SCT012 BKN020 OVC035
     FM131600 17006KT P6SM SCT025 BKN045
     FM131900 17008KT P6SM -RA OVC040
     FM140100 17008KT 4SM -RA SCT008 OVC015=



000
FTUS46 KSEW 131133
TAFSEA
TAF
KSEA 131133Z 1312/1418 18014KT P6SM SCT025 BKN045
      TEMPO 1312/1316 -SHRA BKN025 OVC045
     FM131600 18010KT P6SM SCT030 BKN050
     FM132000 15008KT P6SM -RA OVC040
      TEMPO 1400/1404 4SM -RA
     FM140400 17012KT 4SM -RA SCT010 OVC020=



000
FTUS46 KSEW 131133
TAFCLM
TAF
KCLM 131133Z 1312/1412 VRB03KT P6SM SCT040 BKN070
     FM131900 VRB03KT P6SM -RA OVC045
     FM132300 VRB03KT 4SM -RA SCT008 OVC015=



000
FTUS46 KSEW 131133
TAFPAE
TAF
KPAE 131133Z 1312/1412 19012G18KT P6SM SCT022 BKN040
      TEMPO 1312/1315 -SHRA BKN022 OVC040
     FM131500 17012KT P6SM SCT025 BKN045
     FM132000 16012G20KT P6SM -RA OVC040
     FM140200 16012G20KT 5SM -RA SCT010 OVC018=



000
FTUS46 KSEW 131133
TAFBLI
TAF
KBLI 131133Z 1312/1412 12008KT P6SM SCT025 BKN045
      TEMPO 1312/1315 -SHRA BKN025 OVC045
     FM131700 06008KT P6SM SCT030 BKN050
     FM132000 12008KT P6SM -RA OVC040
     FM140100 15014G24KT 4SM -RA SCT010 OVC020=



000
FTUS46 KSEW 131133
TAFOLM
TAF
KOLM 131133Z 1312/1412 21006KT P6SM VCSH SCT012 BKN020 OVC035
     FM131600 17006KT P6SM SCT025 BKN045
     FM131900 17008KT P6SM -RA OVC040
     FM140100 17008KT 4SM -RA SCT008 OVC015=



000
FTUS46 KSEW 131133
TAFHQM
TAF
KHQM 131133Z 1312/1412 21014KT P6SM SCT020 BKN045
     FM131800 16012KT P6SM -RA OVC035
     FM132200 16015G25KT 3SM -RA BR SCT006 OVC011
     FM140400 18012G18KT 3SM -RA BR OVC006=



000
FTUS46 KSEW 130928 AAA
TAFSEA
TAF AMD
KSEA 130928Z 1309/1412 18014KT P6SM SCT025 BKN045
      TEMPO 1309/1313 4SM -SHRA BKN025 OVC045
     FM131600 18008KT P6SM SCT025 BKN045
     FM132000 15008KT P6SM -RA OVC040
      TEMPO 1322/1402 4SM -RA
     FM140200 17013G20KT 4SM -RA SCT010 OVC020=



000
FTUS46 KSEW 130533
TAFBFI
TAF
KBFI 130533Z 1306/1406 18008KT P6SM SCT030 BKN060
     FM130900 16006KT P6SM SCT030 BKN050
      TEMPO 1309/1313 -SHRA BKN030 OVC050
     FM132000 14006KT P6SM -RA OVC045
      TEMPO 1322/1402 5SM -RA
     FM140200 16010KT 5SM -RA SCT015 OVC025=



000
FTUS46 KSEW 130533
TAFPAE
TAF
KPAE 130533Z 1306/1406 19014G22KT P6SM SCT060
     FM130900 18012G18KT P6SM SCT025 BKN045
      TEMPO 1309/1313 -SHRA BKN025 OVC045
     FM131300 17010KT P6SM SCT025 BKN045
     FM132000 16012G20KT P6SM -RA OVC040
     FM140000 16012G20KT 5SM -RA SCT010 OVC018=



000
FTUS46 KSEW 130533
TAFSEA
TAF
KSEA 130533Z 1306/1412 20010KT P6SM SCT030 BKN060
     FM130900 18008KT P6SM SCT025 BKN045
      TEMPO 1309/1313 -SHRA BKN025 OVC045
     FM132000 15008KT P6SM -RA OVC040
      TEMPO 1322/1402 4SM -RA
     FM140200 17013G20KT 4SM -RA SCT010 OVC020=



000
FTUS46 KSEW 130533
TAFBLI
TAF
KBLI 130533Z 1306/1406 16008KT P6SM SCT030 BKN060
     FM130900 16008KT P6SM SCT025 BKN045
      TEMPO 1309/1313 -SHRA BKN025 OVC045
     FM132000 15012G22KT P6SM -RA OVC040
     FM140200 17012G22KT 4SM -RA SCT010 OVC020=



000
FTUS46 KSEW 130533
TAFCLM
TAF
KCLM 130533Z 1306/1406 VRB03KT P6SM SCT050
     FM130800 VRB03KT P6SM -SHRA SCT030 OVC050
     FM131200 VRB03KT P6SM SCT040 BKN070
     FM131900 VRB03KT P6SM -RA OVC045
     FM132300 VRB03KT 4SM -RA SCT008 OVC015=



000
FTUS46 KSEW 130533
TAFHQM
TAF
KHQM 130533Z 1306/1406 18010KT 4SM -SHRA BR BKN015 OVC040
     FM131200 16008KT P6SM SCT015 BKN035 BKN050
     FM131800 16012KT P6SM -RA OVC035
     FM132200 16015G25KT 3SM -RA BR SCT006 OVC011
     FM140200 18012KT 3SM -RA OVC006=



000
FTUS46 KSEW 130533
TAFOLM
TAF
KOLM 130533Z 1306/1406 21006KT P6SM SCT030 BKN060
     FM130800 19006KT 5SM -SHRA BR SCT012 BKN020 OVC035
     FM131200 19006KT P6SM VCSH SCT012 BKN020 OVC035
     FM131600 17006KT P6SM SCT025 BKN045
     FM131900 17008KT P6SM -RA OVC040
     FM132300 17008KT 4SM -RA SCT008 OVC015=



000
FTUS46 KSEW 130533
TAFBFI
TAF
KBFI 130533Z 1306/1406 18008KT P6SM SCT030 BKN060
     FM130900 16006KT P6SM SCT030 BKN050
      TEMPO 1309/1313 -SHRA BKN030 OVC050
     FM132000 14006KT P6SM -RA OVC045
      TEMPO 1322/1402 5SM -RA
     FM140200 16010KT 5SM -RA SCT015 OVC025=



000
FTUS46 KSEW 130533
TAFBLI
TAF
KBLI 130533Z 1306/1406 16008KT P6SM SCT030 BKN060
     FM130900 16008KT P6SM SCT025 BKN045
      TEMPO 1309/1313 -SHRA BKN025 OVC045
     FM132000 15012G22KT P6SM -RA OVC040
     FM140200 17012G22KT 4SM -RA SCT010 OVC020=



000
FTUS46 KSEW 130533
TAFPAE
TAF
KPAE 130533Z 1306/1406 19014G22KT P6SM SCT060
     FM130900 18012G18KT P6SM SCT025 BKN045
      TEMPO 1309/1313 -SHRA BKN025 OVC045
     FM131300 17010KT P6SM SCT025 BKN045
     FM132000 16012G20KT P6SM -RA OVC040
     FM140000 16012G20KT 5SM -RA SCT010 OVC018=



000
FTUS46 KSEW 130533
TAFSEA
TAF
KSEA 130533Z 1306/1412 20010KT P6SM SCT030 BKN060
     FM130900 18008KT P6SM SCT025 BKN045
      TEMPO 1309/1313 -SHRA BKN025 OVC045
     FM132000 15008KT P6SM -RA OVC040
      TEMPO 1322/1402 4SM -RA
     FM140200 17013G20KT 4SM -RA SCT010 OVC020=



000
FTUS46 KSEW 130533
TAFHQM
TAF
KHQM 130533Z 1306/1406 18010KT 4SM -SHRA BR BKN015 OVC040
     FM131200 16008KT P6SM SCT015 BKN035 BKN050
     FM131800 16012KT P6SM -RA OVC035
     FM132200 16015G25KT 3SM -RA BR SCT006 OVC011
     FM140200 18012KT 3SM -RA OVC006=



000
FTUS46 KSEW 130533
TAFOLM
TAF
KOLM 130533Z 1306/1406 21006KT P6SM SCT030 BKN060
     FM130800 19006KT 5SM -SHRA BR SCT012 BKN020 OVC035
     FM131200 19006KT P6SM VCSH SCT012 BKN020 OVC035
     FM131600 17006KT P6SM SCT025 BKN045
     FM131900 17008KT P6SM -RA OVC040
     FM132300 17008KT 4SM -RA SCT008 OVC015=



000
FTUS46 KSEW 130533
TAFCLM
TAF
KCLM 130533Z 1306/1406 VRB03KT P6SM SCT050
     FM130800 VRB03KT P6SM -SHRA SCT030 OVC050
     FM131200 VRB03KT P6SM SCT040 BKN070
     FM131900 VRB03KT P6SM -RA OVC045
     FM132300 VRB03KT 4SM -RA SCT008 OVC015=



000
FTUS46 KSEW 130307 AAA
TAFSEA
TAF AMD
KSEA 130307Z 1303/1406 22010KT P6SM SCT030 BKN060
     FM130900 19009KT 5SM -SHRA BR SCT008 OVC015
     FM131200 19011KT P6SM SCT012 BKN020
     FM132000 18011KT 6SM -RA BR SCT012 BKN018 OVC030
     FM140300 17013G20KT P6SM -RA OVC020=



000
FTUS46 KSEW 130215 AAA
TAFPAE
TAF AMD
KPAE 130215Z 1302/1324 19016KT P6SM FEW030 BKN200
      TEMPO 1302/1304 19015G25KT
     FM130900 18011G18KT 5SM -SHRA BR SCT010 BKN018 OVC030
     FM131100 17010KT P6SM BKN018 OVC030
     FM132000 17015G24KT 6SM -RA BR SCT018 OVC030=



000
FTUS46 KSEW 130148 AAA
TAFHQM
TAF AMD
KHQM 130148Z 1302/1324 20012KT 5SM BR SCT011 BKN025 BKN200
      TEMPO 1302/1306 BKN011 BKN025 OVC200
     FM130600 19008KT 4SM -SHRA BR SCT010 BKN015 OVC025
     FM131100 16007KT 6SM BR VCSH BKN015 OVC030
     FM131700 16018G30KT 3SM -RA BR SCT006 OVC010=



000
FTUS46 KSEW 130148 AAA
TAFHQM
TAF AMD
KHQM 130148Z 1302/1324 20012KT 5SM BR SCT011 BKN025 BKN200
      TEMPO 1302/1306 BKN011 BKN025 OVC200
     FM130600 19008KT 4SM -SHRA BR SCT010 BKN015 OVC025
     FM131100 16007KT 6SM BR VCSH BKN015 OVC030
     FM131700 16018G30KT 3SM -RA BR SCT006 OVC010=



000
FTUS46 KSEW 122351
TAFHQM
TAF
KHQM 122351Z 1300/1324 20012KT 6SM BR VCSH SCT015 BKN035
     FM130700 19008KT 4SM -SHRA BR SCT010 BKN015 OVC025
     FM131100 16007KT 6SM BR VCSH BKN015 OVC030
     FM131700 16018G30KT 3SM -RA BR SCT006 OVC010=



000
FTUS46 KSEW 122351
TAFOLM
TAF
KOLM 122351Z 1300/1324 24006KT P6SM VCSH SCT025 SCT040
     FM130300 21006KT P6SM SCT020 BKN035
     FM130800 20007KT 5SM -SHRA BR BKN012 OVC020
     FM131200 20008KT P6SM VCSH SCT012 BKN020 OVC030
     FM131900 19011KT 4SM -RA BR OVC015=



000
FTUS46 KSEW 122351
TAFCLM
TAF
KCLM 122351Z 1300/1324 30006KT P6SM VCSH SCT035 BKN050
     FM130800 24004KT 6SM -RA BR OVC050
     FM131200 22003KT P6SM BKN070 OVC100
     FM131900 06005KT 5SM -RA BR SCT008 OVC045=



000
FTUS46 KSEW 122351
TAFOLM
TAF
KOLM 122351Z 1300/1324 24006KT P6SM VCSH SCT025 SCT040
     FM130300 21006KT P6SM SCT020 BKN035
     FM130800 20007KT 5SM -SHRA BR BKN012 OVC020
     FM131200 20008KT P6SM VCSH SCT012 BKN020 OVC030
     FM131900 19011KT 4SM -RA BR OVC015=



000
FTUS46 KSEW 122351
TAFHQM
TAF
KHQM 122351Z 1300/1324 20012KT 6SM BR VCSH SCT015 BKN035
     FM130700 19008KT 4SM -SHRA BR SCT010 BKN015 OVC025
     FM131100 16007KT 6SM BR VCSH BKN015 OVC030
     FM131700 16018G30KT 3SM -RA BR SCT006 OVC010=



000
FTUS46 KSEW 122351
TAFCLM
TAF
KCLM 122351Z 1300/1324 30006KT P6SM VCSH SCT035 BKN050
     FM130800 24004KT 6SM -RA BR OVC050
     FM131200 22003KT P6SM BKN070 OVC100
     FM131900 06005KT 5SM -RA BR SCT008 OVC045=



000
FTUS46 KSEW 122339
TAFSEA
TAF
KSEA 122339Z 1300/1406 20010KT P6SM SCT025 SCT040
      TEMPO 1300/1302 6SM -SHRA BKN025
     FM130500 20009KT P6SM SCT020 BKN035
     FM130900 19009KT 5SM -SHRA BR SCT008 OVC015
     FM131200 19011KT P6SM SCT012 BKN020
     FM132000 18011KT 6SM -RA BR SCT012 BKN018 OVC030
     FM140300 17013G20KT P6SM -RA OVC020=



000
FTUS46 KSEW 122339
TAFBLI
TAF
KBLI 122339Z 1300/1324 16008KT P6SM SCT025 SCT040
     FM130900 16007KT 5SM -SHRA SCT020 OVC030
     FM131300 16011KT P6SM SCT020 OVC035
     FM132100 15012G22KT P6SM -RA OVC035=



000
FTUS46 KSEW 122339
TAFPAE
TAF
KPAE 122339Z 1300/1324 19016G25KT P6SM SCT025 SCT035
     FM130900 18011G18KT 5SM -SHRA BR SCT010 BKN018 OVC030
     FM131100 17010KT P6SM BKN018 OVC030
     FM132000 17015G24KT 6SM -RA BR SCT018 OVC030=



000
FTUS46 KSEW 122339
TAFBFI
TAF
KBFI 122339Z 1300/1324 18009KT P6SM SCT025 SCT040
      TEMPO 1300/1302 -SHRA BKN025
     FM130500 16008KT P6SM SCT025 BKN040
     FM130900 16009KT 5SM -SHRA BR SCT010 OVC018
     FM131200 16009KT P6SM SCT015 BKN020
     FM132000 18011KT 6SM -RA BR SCT015 BKN020 OVC030=



000
FTUS46 KSEW 122339
TAFBLI
TAF
KBLI 122339Z 1300/1324 16008KT P6SM SCT025 SCT040
     FM130900 16007KT 5SM -SHRA SCT020 OVC030
     FM131300 16011KT P6SM SCT020 OVC035
     FM132100 15012G22KT P6SM -RA OVC035=



000
FTUS46 KSEW 122339
TAFPAE
TAF
KPAE 122339Z 1300/1324 19016G25KT P6SM SCT025 SCT035
     FM130900 18011G18KT 5SM -SHRA BR SCT010 BKN018 OVC030
     FM131100 17010KT P6SM BKN018 OVC030
     FM132000 17015G24KT 6SM -RA BR SCT018 OVC030=



000
FTUS46 KSEW 122339
TAFBFI
TAF
KBFI 122339Z 1300/1324 18009KT P6SM SCT025 SCT040
      TEMPO 1300/1302 -SHRA BKN025
     FM130500 16008KT P6SM SCT025 BKN040
     FM130900 16009KT 5SM -SHRA BR SCT010 OVC018
     FM131200 16009KT P6SM SCT015 BKN020
     FM132000 18011KT 6SM -RA BR SCT015 BKN020 OVC030=



000
FTUS46 KSEW 122339
TAFSEA
TAF
KSEA 122339Z 1300/1406 20010KT P6SM SCT025 SCT040
      TEMPO 1300/1302 6SM -SHRA BKN025
     FM130500 20009KT P6SM SCT020 BKN035
     FM130900 19009KT 5SM -SHRA BR SCT008 OVC015
     FM131200 19011KT P6SM SCT012 BKN020
     FM132000 18011KT 6SM -RA BR SCT012 BKN018 OVC030
     FM140300 17013G20KT P6SM -RA OVC020=



000
FTUS46 KSEW 122103 AAA
TAFSEA
TAF AMD
KSEA 122103Z 1221/1324 19012G21KT P6SM SCT015 BKN025
     FM122200 21012G20KT P6SM VCSH SCT020 BKN035
      TEMPO 1222/1302 6SM -SHRA BR BKN020 OVC035
     FM130800 19009KT 5SM -RA BR SCT008 OVC015
     FM131400 19011KT P6SM SCT015 BKN030
     FM132000 18011KT 5SM -RA BR SCT012 BKN018 OVC030=



000
FTUS46 KSEW 121749
TAFOLM
TAF
KOLM 121749Z 1218/1318 20008KT P6SM VCSH SCT014 BKN025
     FM122000 21008KT P6SM VCSH SCT020 BKN035
     FM130800 20007KT 5SM -RA BR SCT008 OVC012
     FM131500 20008KT P6SM VCSH SCT012 BKN020 OVC030=



000
FTUS46 KSEW 121749
TAFHQM
TAF
KHQM 121749Z 1218/1318 21013G20KT 6SM BR SCT008 BKN018
     FM130000 20012KT 5SM -SHRA BR SCT008 BKN012 OVC020
     FM131100 15008KT 5SM -RA BR SCT006 OVC012=



000
FTUS46 KSEW 121749
TAFCLM
TAF
KCLM 121749Z 1218/1318 31008KT P6SM VCSH SCT025 BKN050
      TEMPO 1218/1219 6SM -RA BR
     FM130800 24004KT 6SM -RA BR OVC050
     FM131300 22003KT P6SM BKN070 OVC100=



000
FTUS46 KSEW 121749
TAFHQM
TAF
KHQM 121749Z 1218/1318 21013G20KT 6SM BR SCT008 BKN018
     FM130000 20012KT 5SM -SHRA BR SCT008 BKN012 OVC020
     FM131100 15008KT 5SM -RA BR SCT006 OVC012=



000
FTUS46 KSEW 121749
TAFOLM
TAF
KOLM 121749Z 1218/1318 20008KT P6SM VCSH SCT014 BKN025
     FM122000 21008KT P6SM VCSH SCT020 BKN035
     FM130800 20007KT 5SM -RA BR SCT008 OVC012
     FM131500 20008KT P6SM VCSH SCT012 BKN020 OVC030=



000
FTUS46 KSEW 121749
TAFCLM
TAF
KCLM 121749Z 1218/1318 31008KT P6SM VCSH SCT025 BKN050
      TEMPO 1218/1219 6SM -RA BR
     FM130800 24004KT 6SM -RA BR OVC050
     FM131300 22003KT P6SM BKN070 OVC100=



000
FTUS46 KSEW 121735
TAFBFI
TAF
KBFI 121735Z 1218/1318 19010G18KT 3SM -RA BR BKN008 OVC014
     FM122000 21014G22KT P6SM SCT015 BKN020 OVC040
     FM122200 23012G20KT P6SM VCSH SCT025 BKN045
      TEMPO 1222/1302 6SM -SHRA BR BKN025 OVC035
     FM130800 19009KT 5SM -RA BR SCT010 OVC018
     FM131400 19011KT P6SM SCT015 BKN030=



000
FTUS46 KSEW 121735
TAFSEA
TAF
KSEA 121735Z 1218/1324 20012G20KT 3SM -RA BR BKN006 OVC012
     FM122000 21014G22KT P6SM SCT012 BKN018 OVC040
     FM122200 23012G20KT P6SM VCSH SCT020 BKN040
      TEMPO 1222/1302 6SM -SHRA BR BKN020 OVC030
     FM130800 19009KT 5SM -RA BR SCT008 OVC015
     FM131400 19011KT P6SM SCT015 BKN030
     FM132000 18011KT 5SM -RA BR SCT012 BKN018 OVC030=



000
FTUS46 KSEW 121735
TAFBLI
TAF
KBLI 121735Z 1218/1318 15012G18KT 3SM -RA BR SCT008 OVC012
     FM122000 18010KT P6SM VCSH SCT018 BKN035
     FM131000 16007KT P6SM -RA SCT020 OVC040=



000
FTUS46 KSEW 121735
TAFPAE
TAF
KPAE 121735Z 1218/1318 17012G22KT 3SM -RA BR BKN008 OVC014
     FM122000 19016G25KT P6SM VCSH SCT012 BKN025
     FM130800 18011G18KT 6SM -RA BR SCT010 BKN015 OVC025
     FM131400 16010KT P6SM VCSH SCT012 OVC020=



000
FTUS46 KSEW 121617 AAB
TAFHQM
TAF AMD
KHQM 121617Z 1216/1312 21014G20KT 3SM RA BR BKN008 OVC014
     FM121800 21013G20KT 6SM BR SCT010 BKN018
     FM122200 20012KT 4SM -SHRA BR BKN008 OVC012
     FM130300 18009KT 6SM -SHRA BR SCT012 OVC020=



000
FTUS46 KSEW 121609 AAA
TAFCLM
TAF AMD
KCLM 121609Z 1216/1312 28004KT 2SM RA BR SCT008 BKN035
     FM121800 28010KT P6SM VCSH SCT025 BKN050=



000
FTUS46 KSEW 121609 AAA
TAFCLM
TAF AMD
KCLM 121609Z 1216/1312 28004KT 2SM RA BR SCT008 BKN035
     FM121800 28010KT P6SM VCSH SCT025 BKN050=



000
FTUS46 KSEW 121414 AAA
TAFHQM
TAF AMD
KHQM 121414Z 1214/1312 16010KT 3SM -RA BR BKN010 OVC015
     FM121600 22014G20KT P6SM -SHRA SCT025 BKN040 BKN060
     FM122200 20012KT P6SM -SHRA SCT025 BKN040 BKN060=



000
FTUS46 KSEW 121402 AAA
TAFSEA
TAF AMD
KSEA 121402Z 1214/1318 17006KT P6SM -RA SCT006 OVC025
      TEMPO 1214/1216 5SM -RA BR BKN006 OVC025
     FM121900 20014KT P6SM VCSH SCT025 BKN040 BKN060
     FM131000 19010KT P6SM VCSH BKN025 OVC040
      TEMPO 1310/1314 -SHRA OVC020=



000
FTUS46 KSEW 121130
TAFHQM
TAF
KHQM 121130Z 1212/1312 08008KT 4SM -RA BR BKN011 OVC020
     FM121400 22014G20KT P6SM -SHRA SCT025 BKN040 BKN060
     FM122200 20012KT P6SM -SHRA SCT025 BKN040 BKN060=



000
FTUS46 KSEW 121130
TAFCLM
TAF
KCLM 121130Z 1212/1312 25004KT P6SM SCT002 OVC040
      TEMPO 1212/1216 1SM BR BKN002 OVC040
     FM121800 28010KT P6SM VCSH SCT025 BKN050=



000
FTUS46 KSEW 121130
TAFPAE
TAF
KPAE 121130Z 1212/1312 15014KT P6SM -RA SCT006 OVC045
      TEMPO 1212/1215 5SM -RA BR BKN006 OVC045
     FM121800 18014KT P6SM VCSH SCT025 BKN040 BKN060
     FM122200 18010KT P6SM -SHRA SCT012 BKN022 OVC035=



000
FTUS46 KSEW 121130
TAFOLM
TAF
KOLM 121130Z 1212/1312 20006KT P6SM SCT025 OVC045
      TEMPO 1214/1218 -RA BKN025 OVC045
     FM121900 20010KT P6SM -SHRA SCT025 BKN050=



000
FTUS46 KSEW 121130
TAFBLI
TAF
KBLI 121130Z 1212/1312 35005KT P6SM -RA OVC022
     FM121400 15012G18KT P6SM -RA OVC022
     FM122000 18012KT P6SM VCSH SCT025 BKN050=



000
FTUS46 KSEW 121130
TAFBFI
TAF
KBFI 121130Z 1212/1312 16006KT P6SM -RA SCT011 OVC030
      TEMPO 1212/1215 5SM -RA BR BKN011 OVC030
     FM121900 19010KT P6SM VCSH SCT025 BKN040 BKN060=



000
FTUS46 KSEW 121130
TAFSEA
TAF
KSEA 121130Z 1212/1318 17006KT P6SM -RA SCT006 OVC025
      TEMPO 1212/1215 5SM -RA BR BKN006 OVC025
     FM121900 20014KT P6SM VCSH SCT025 BKN040 BKN060
     FM131000 18008KT P6SM BKN025 OVC040=



000
FTUS46 KSEW 121130
TAFCLM
TAF
KCLM 121130Z 1212/1312 25004KT P6SM SCT002 OVC040
      TEMPO 1212/1216 1SM BR BKN002 OVC040
     FM121800 28010KT P6SM VCSH SCT025 BKN050=



000
FTUS46 KSEW 121130
TAFOLM
TAF
KOLM 121130Z 1212/1312 20006KT P6SM SCT025 OVC045
      TEMPO 1214/1218 -RA BKN025 OVC045
     FM121900 20010KT P6SM -SHRA SCT025 BKN050=



000
FTUS46 KSEW 121130
TAFBLI
TAF
KBLI 121130Z 1212/1312 35005KT P6SM -RA OVC022
     FM121400 15012G18KT P6SM -RA OVC022
     FM122000 18012KT P6SM VCSH SCT025 BKN050=



000
FTUS46 KSEW 121130
TAFHQM
TAF
KHQM 121130Z 1212/1312 08008KT 4SM -RA BR BKN011 OVC020
     FM121400 22014G20KT P6SM -SHRA SCT025 BKN040 BKN060
     FM122200 20012KT P6SM -SHRA SCT025 BKN040 BKN060=



000
FTUS46 KSEW 121130
TAFBFI
TAF
KBFI 121130Z 1212/1312 16006KT P6SM -RA SCT011 OVC030
      TEMPO 1212/1215 5SM -RA BR BKN011 OVC030
     FM121900 19010KT P6SM VCSH SCT025 BKN040 BKN060=



000
FTUS46 KSEW 121130
TAFSEA
TAF
KSEA 121130Z 1212/1318 17006KT P6SM -RA SCT006 OVC025
      TEMPO 1212/1215 5SM -RA BR BKN006 OVC025
     FM121900 20014KT P6SM VCSH SCT025 BKN040 BKN060
     FM131000 18008KT P6SM BKN025 OVC040=



000
FTUS46 KSEW 121130
TAFPAE
TAF
KPAE 121130Z 1212/1312 15014KT P6SM -RA SCT006 OVC045
      TEMPO 1212/1215 5SM -RA BR BKN006 OVC045
     FM121800 18014KT P6SM VCSH SCT025 BKN040 BKN060
     FM122200 18010KT P6SM -SHRA SCT012 BKN022 OVC035=



000
FTUS46 KSEW 120933 AAA
TAFHQM
TAF AMD
KHQM 120933Z 1210/1306 08008KT 4SM -RA BR BKN008 OVC015
     FM121600 22015KT P6SM -SHRA BKN025 BKN050 OVC100
     FM122200 22012KT P6SM -SHRA SCT025 BKN040 BKN060=



000
FTUS46 KSEW 120933 AAA
TAFHQM
TAF AMD
KHQM 120933Z 1210/1306 08008KT 4SM -RA BR BKN008 OVC015
     FM121600 22015KT P6SM -SHRA BKN025 BKN050 OVC100
     FM122200 22012KT P6SM -SHRA SCT025 BKN040 BKN060=



000
FTUS46 KSEW 120932 AAA
TAFCLM
TAF AMD
KCLM 120932Z 1210/1306 00000KT 4SM -RA BR SCT005 OVC050
     FM121700 30008KT P6SM VCSH BKN050=



000
FTUS46 KSEW 120931 AAA
TAFSEA
TAF AMD
KSEA 120931Z 1210/1312 17006KT 2SM -RA SCT003 BKN022 OVC035
     FM121100 17006KT 5SM -RA BR SCT015 OVC025
     FM122000 20012KT P6SM VCSH SCT025 BKN040 BKN060=



000
FTUS46 KSEW 120931 AAA
TAFBFI
TAF AMD
KBFI 120931Z 1210/1306 14006KT 2SM -RA BR SCT006 BKN025 OVC035
     FM121100 16006KT P6SM -RA SCT015 BKN028 OVC045
     FM122000 18010KT P6SM VCSH SCT030 BKN045 BKN060=



000
FTUS46 KSEW 120533
TAFBFI
TAF
KBFI 120533Z 1206/1306 14006KT P6SM -RA OVC045
     FM121500 18010KT P6SM -SHRA BKN028 OVC045
     FM122000 18010KT P6SM VCSH SCT030 BKN045 BKN060=



000
FTUS46 KSEW 120533
TAFCLM
TAF
KCLM 120533Z 1206/1306 00000KT 4SM -RA BR OVC005
     FM121200 VRB03KT P6SM -RA SCT005 BKN015 OVC050
     FM121700 30008KT P6SM VCSH BKN050=



000
FTUS46 KSEW 120533
TAFBLI
TAF
KBLI 120533Z 1206/1306 35005KT P6SM -RA OVC035
     FM121300 15012G18KT P6SM -RA OVC035
     FM121600 17012G18KT P6SM -RA BKN025 OVC035
     FM121900 18010G16KT P6SM VCSH SCT025 BKN050=



000
FTUS46 KSEW 120533
TAFSEA
TAF
KSEA 120533Z 1206/1312 12008KT P6SM -RA OVC040
     FM121500 18010KT 5SM -RA BR OVC025
     FM122000 20012KT P6SM VCSH SCT025 BKN040 BKN060=



000
FTUS46 KSEW 120533
TAFSEA
TAF
KSEA 120533Z 1206/1312 12008KT P6SM -RA OVC040
     FM121500 18010KT 5SM -RA BR OVC025
     FM122000 20012KT P6SM VCSH SCT025 BKN040 BKN060=



000
FTUS46 KSEW 120533
TAFBFI
TAF
KBFI 120533Z 1206/1306 14006KT P6SM -RA OVC045
     FM121500 18010KT P6SM -SHRA BKN028 OVC045
     FM122000 18010KT P6SM VCSH SCT030 BKN045 BKN060=



000
FTUS46 KSEW 120533
TAFPAE
TAF
KPAE 120533Z 1206/1306 14008KT P6SM -RA SCT025 BKN050 OVC100
     FM121500 17012KT 4SM -RA BR OVC025
     FM121900 19014KT P6SM VCSH SCT030 BKN050
     FM122200 19010KT P6SM -SHRA BKN025 OVC040=



000
FTUS46 KSEW 120533
TAFHQM
TAF
KHQM 120533Z 1206/1306 08008KT P6SM -RA SCT015 OVC035
     FM121300 17010KT 4SM -RA BR OVC015
     FM121600 22015KT P6SM -SHRA BKN025 BKN050 OVC100
     FM122200 22012KT P6SM -SHRA SCT025 BKN040 BKN060=



000
FTUS46 KSEW 120533
TAFOLM
TAF
KOLM 120533Z 1206/1306 15006KT 2SM -RA BR SCT008 OVC025
     FM121000 15006KT P6SM -RA SCT025 OVC035
     FM121600 18010KT P6SM -RA BKN022 OVC035
     FM121900 20010KT P6SM -SHRA SCT025 BKN050=



000
FTUS46 KSEW 120533
TAFCLM
TAF
KCLM 120533Z 1206/1306 00000KT 4SM -RA BR OVC005
     FM121200 VRB03KT P6SM -RA SCT005 BKN015 OVC050
     FM121700 30008KT P6SM VCSH BKN050=



000
FTUS46 KSEW 120533
TAFBLI
TAF
KBLI 120533Z 1206/1306 35005KT P6SM -RA OVC035
     FM121300 15012G18KT P6SM -RA OVC035
     FM121600 17012G18KT P6SM -RA BKN025 OVC035
     FM121900 18010G16KT P6SM VCSH SCT025 BKN050=



000
FTUS46 KSEW 120533
TAFHQM
TAF
KHQM 120533Z 1206/1306 08008KT P6SM -RA SCT015 OVC035
     FM121300 17010KT 4SM -RA BR OVC015
     FM121600 22015KT P6SM -SHRA BKN025 BKN050 OVC100
     FM122200 22012KT P6SM -SHRA SCT025 BKN040 BKN060=



000
FTUS46 KSEW 120533
TAFOLM
TAF
KOLM 120533Z 1206/1306 15006KT 2SM -RA BR SCT008 OVC025
     FM121000 15006KT P6SM -RA SCT025 OVC035
     FM121600 18010KT P6SM -RA BKN022 OVC035
     FM121900 20010KT P6SM -SHRA SCT025 BKN050=



000
FTUS46 KSEW 120533
TAFPAE
TAF
KPAE 120533Z 1206/1306 14008KT P6SM -RA SCT025 BKN050 OVC100
     FM121500 17012KT 4SM -RA BR OVC025
     FM121900 19014KT P6SM VCSH SCT030 BKN050
     FM122200 19010KT P6SM -SHRA BKN025 OVC040=



000
FTUS46 KSEW 120427 AAA
TAFCLM
TAF AMD
KCLM 120427Z 1204/1224 00000KT 4SM -RA BR OVC005
     FM120800 VRB03KT P6SM -RA SCT005 BKN015 OVC050
     FM121700 30008KT P6SM VCSH BKN050=



000
FTUS46 KSEW 120427 AAA
TAFCLM
TAF AMD
KCLM 120427Z 1204/1224 00000KT 4SM -RA BR OVC005
     FM120800 VRB03KT P6SM -RA SCT005 BKN015 OVC050
     FM121700 30008KT P6SM VCSH BKN050=



000
FTUS46 KSEW 120308 AAA
TAFSEA
TAF AMD
KSEA 120308Z 1203/1306 12006KT 6SM -RA OVC035
     FM121200 18010KT 5SM -RA BR OVC025
     FM121600 20012KT P6SM -SHRA BKN025 BKN050
     FM122100 20012KT P6SM VCSH SCT025 BKN050=



000
FTUS46 KSEW 120119 AAB
TAFHQM
TAF AMD
KHQM 120119Z 1201/1224 05006KT 3SM -RA BR BKN012 OVC020
     FM120400 08008KT 3SM -RA BR BKN008 OVC015
     FM120900 12010KT 4SM -RA BR OVC025
     FM121400 17010KT 4SM -RA BR OVC015
     FM121600 22015KT P6SM -SHRA BKN050 OVC100=



000
FTUS46 KSEW 120119 AAB
TAFHQM
TAF AMD
KHQM 120119Z 1201/1224 05006KT 3SM -RA BR BKN012 OVC020
     FM120400 08008KT 3SM -RA BR BKN008 OVC015
     FM120900 12010KT 4SM -RA BR OVC025
     FM121400 17010KT 4SM -RA BR OVC015
     FM121600 22015KT P6SM -SHRA BKN050 OVC100=



000
FTUS46 KSEW 120118 AAB
TAFOLM
TAF AMD
KOLM 120118Z 1201/1224 00000KT 3SM -RA BR BKN010 OVC045
     FM120300 00000KT 3SM -RA BR BKN008 OVC025
     FM121900 20010KT P6SM -SHRA SCT025 BKN050=



000
FTUS46 KSEW 120118 AAB
TAFOLM
TAF AMD
KOLM 120118Z 1201/1224 00000KT 3SM -RA BR BKN010 OVC045
     FM120300 00000KT 3SM -RA BR BKN008 OVC025
     FM121900 20010KT P6SM -SHRA SCT025 BKN050=



000
FTUS46 KSEW 120051 AAA
TAFHQM
TAF AMD
KHQM 120051Z 1201/1224 05006KT 5SM -RA BR BKN020 OVC025
     FM120400 08008KT 4SM -RA BR OVC020
     FM120900 12010KT 4SM -RA BR OVC025
     FM121400 17010KT 4SM -RA BR OVC015
     FM121600 22015KT P6SM -SHRA BKN050 OVC100=



000
FTUS46 KSEW 120051 AAA
TAFHQM
TAF AMD
KHQM 120051Z 1201/1224 05006KT 5SM -RA BR BKN020 OVC025
     FM120400 08008KT 4SM -RA BR OVC020
     FM120900 12010KT 4SM -RA BR OVC025
     FM121400 17010KT 4SM -RA BR OVC015
     FM121600 22015KT P6SM -SHRA BKN050 OVC100=



000
FTUS46 KSEW 120050 AAA
TAFOLM
TAF AMD
KOLM 120050Z 1201/1224 12004KT 6SM -RA BR OVC045
     FM120300 12004KT 4SM -RA BR BKN015 OVC030
     FM121900 20010KT P6SM -SHRA SCT025 BKN050=



000
FTUS46 KSEW 120050 AAA
TAFOLM
TAF AMD
KOLM 120050Z 1201/1224 12004KT 6SM -RA BR OVC045
     FM120300 12004KT 4SM -RA BR BKN015 OVC030
     FM121900 20010KT P6SM -SHRA SCT025 BKN050=



000
FTUS46 KSEW 112322
TAFSEA
TAF
KSEA 112322Z 1200/1306 04005KT P6SM -RA OVC050
     FM120500 10006KT 6SM -RA OVC035
     FM121200 18010KT 5SM -RA BR OVC025
     FM121600 20012KT P6SM -SHRA BKN025 BKN050
     FM122100 20012KT P6SM VCSH SCT025 BKN050=



000
FTUS46 KSEW 112322
TAFOLM
TAF
KOLM 112322Z 1200/1224 00000KT P6SM SCT005 OVC060
     FM120100 20004KT 3SM -RA BR BKN005 OVC025
     FM121900 20010KT P6SM -SHRA SCT025 BKN050=



000
FTUS46 KSEW 112322
TAFCLM
TAF
KCLM 112322Z 1200/1224 00000KT 4SM -RA BR SCT009 OVC016
     FM120600 VRB03KT P6SM -RA BKN015 OVC050
     FM121700 30008KT P6SM VCSH BKN050=



000
FTUS46 KSEW 112322
TAFBLI
TAF
KBLI 112322Z 1200/1224 35005KT P6SM -RA OVC050
     FM120900 14008KT P6SM -RA OVC035
     FM121300 15012G18KT 4SM -RA BR OVC030
     FM121700 16012G20KT P6SM -SHRA BKN025 OVC045
     FM122100 18010G16KT P6SM VCSH SCT025 BKN050=



000
FTUS46 KSEW 112322
TAFPAE
TAF
KPAE 112322Z 1200/1224 16007KT P6SM -RA OVC050
     FM120400 16010KT 5SM -RA OVC035
     FM121300 17012KT 4SM -RA BR OVC025
     FM121600 18014G22KT P6SM -SHRA BKN025 BKN040
     FM122100 19014G22KT P6SM VCSH SCT030 BKN050=



000
FTUS46 KSEW 112322
TAFBFI
TAF
KBFI 112322Z 1200/1224 VRB03KT P6SM -RA OVC050
     FM120500 13005KT 6SM -RA OVC040
     FM121200 17008KT 6SM -RA OVC030
     FM121600 18010KT P6SM -SHRA BKN028 OVC045
     FM122100 18010KT P6SM VCSH SCT030 BKN050=



000
FTUS46 KSEW 112322
TAFHQM
TAF
KHQM 112322Z 1200/1224 04007KT 4SM -RA BR FEW028 BKN035 OVC050
     FM120400 08008KT 4SM -RA BR OVC025
     FM120900 12010KT 4SM -RA BR OVC025
     FM121400 17010KT 4SM -RA BR OVC015=



000
FTUS46 KSEW 112322
TAFBLI
TAF
KBLI 112322Z 1200/1224 35005KT P6SM -RA OVC050
     FM120900 14008KT P6SM -RA OVC035
     FM121300 15012G18KT 4SM -RA BR OVC030
     FM121700 16012G20KT P6SM -SHRA BKN025 OVC045
     FM122100 18010G16KT P6SM VCSH SCT025 BKN050=



000
FTUS46 KSEW 112322
TAFPAE
TAF
KPAE 112322Z 1200/1224 16007KT P6SM -RA OVC050
     FM120400 16010KT 5SM -RA OVC035
     FM121300 17012KT 4SM -RA BR OVC025
     FM121600 18014G22KT P6SM -SHRA BKN025 BKN040
     FM122100 19014G22KT P6SM VCSH SCT030 BKN050=



000
FTUS46 KSEW 112322
TAFHQM
TAF
KHQM 112322Z 1200/1224 04007KT 4SM -RA BR FEW028 BKN035 OVC050
     FM120400 08008KT 4SM -RA BR OVC025
     FM120900 12010KT 4SM -RA BR OVC025
     FM121400 17010KT 4SM -RA BR OVC015=



000
FTUS46 KSEW 112322
TAFSEA
TAF
KSEA 112322Z 1200/1306 04005KT P6SM -RA OVC050
     FM120500 10006KT 6SM -RA OVC035
     FM121200 18010KT 5SM -RA BR OVC025
     FM121600 20012KT P6SM -SHRA BKN025 BKN050
     FM122100 20012KT P6SM VCSH SCT025 BKN050=



000
FTUS46 KSEW 112322
TAFCLM
TAF
KCLM 112322Z 1200/1224 00000KT 4SM -RA BR SCT009 OVC016
     FM120600 VRB03KT P6SM -RA BKN015 OVC050
     FM121700 30008KT P6SM VCSH BKN050=



000
FTUS46 KSEW 112322
TAFOLM
TAF
KOLM 112322Z 1200/1224 00000KT P6SM SCT005 OVC060
     FM120100 20004KT 3SM -RA BR BKN005 OVC025
     FM121900 20010KT P6SM -SHRA SCT025 BKN050=



000
FTUS46 KSEW 112322
TAFBFI
TAF
KBFI 112322Z 1200/1224 VRB03KT P6SM -RA OVC050
     FM120500 13005KT 6SM -RA OVC040
     FM121200 17008KT 6SM -RA OVC030
     FM121600 18010KT P6SM -SHRA BKN028 OVC045
     FM122100 18010KT P6SM VCSH SCT030 BKN050=



000
FTUS46 KSEW 112238 AAB
TAFCLM
TAF AMD
KCLM 112238Z 1123/1218 00000KT P6SM -RA FEW009 BKN014 OVC019
     FM120600 VRB03KT P6SM -RA SCT015 OVC050=



000
FTUS46 KSEW 112238 AAA
TAFHQM
TAF AMD
KHQM 112238Z 1123/1218 02005KT 2SM -RA BR OVC029
     FM120400 08008KT 4SM -RA BR OVC025
     FM120900 12010KT 4SM -RA BR OVC025
     FM121400 17010KT 4SM -RA BR OVC015=



000
FTUS46 KSEW 112116 AAB
TAFOLM
TAF AMD
KOLM 112116Z 1121/1218 00000KT 5SM -RA BR OVC005
     FM120900 20003KT 3SM -RA BR BKN005 OVC025
     FM121400 20003KT 3SM -RA BR OVC012=



000
FTUS46 KSEW 112115 AAA
TAFCLM
TAF AMD
KCLM 112115Z 1121/1218 VRB03KT P6SM OVC008
     FM120000 VRB03KT 3SM -RA BR OVC005
     FM120600 VRB03KT P6SM -RA SCT015 OVC050=



000
FTUS46 KSEW 112115 AAA
TAFBFI
TAF AMD
KBFI 112115Z 1121/1218 35005KT P6SM BKN070 OVC080
     FM112300 02003KT P6SM -RA OVC050
     FM120400 14006KT 6SM -RA OVC040
     FM121200 17008KT 6SM -RA OVC030=



000
FTUS46 KSEW 112115 AAA
TAFBFI
TAF AMD
KBFI 112115Z 1121/1218 35005KT P6SM BKN070 OVC080
     FM112300 02003KT P6SM -RA OVC050
     FM120400 14006KT 6SM -RA OVC040
     FM121200 17008KT 6SM -RA OVC030=



000
FTUS46 KSEW 112114 AAA
TAFSEA
TAF AMD
KSEA 112114Z 1121/1224 36007KT P6SM BKN050 OVC100
     FM112300 02006KT P6SM -RA OVC050
     FM120200 15006KT 6SM -RA OVC035
     FM121200 18010KT 5SM -RA BR OVC025=



000
FTUS46 KSEW 111948 AAA
TAFOLM
TAF AMD
KOLM 111948Z 1120/1218 02006KT P6SM -RA BKN004 OVC060
     FM112100 02006KT P6SM SCT004 OVC060
     FM120100 16006KT 5SM -RA SCT004 OVC025
     FM120900 20003KT 3SM -RA BR BKN005 OVC025
     FM121400 20003KT 3SM -RA BR OVC012=



000
FTUS46 KSEW 111724
TAFHQM
TAF
KHQM 111724Z 1118/1218 07009KT 6SM -RA BR OVC070
     FM120000 08012KT 4SM -RA BR OVC030
     FM120900 12010KT 4SM -RA BR OVC025
     FM121400 17010KT 4SM -RA BR OVC015=



000
FTUS46 KSEW 111724
TAFBLI
TAF
KBLI 111724Z 1118/1218 02006KT P6SM OVC080
     FM112300 04006KT P6SM -RA OVC050
     FM120600 14008G14KT P6SM -RA OVC035
     FM121300 15012G18KT 4SM -RA BR OVC030
     FM121700 16012G20KT 4SM -RA BR OVC030=



000
FTUS46 KSEW 111724
TAFSEA
TAF
KSEA 111724Z 1118/1224 05004KT P6SM -RA OVC050
     FM120400 15006KT 6SM -RA OVC035
     FM121200 18010KT 5SM -RA BR OVC025=



000
FTUS46 KSEW 111724
TAFOLM
TAF
KOLM 111724Z 1118/1218 00000KT 2SM -RA BR BKN003 OVC080
     FM112000 VRB03KT 5SM -RA BR SCT007 OVC050
     FM120400 16006KT 5SM -RA OVC025
     FM120900 20003KT 3SM -RA BR SCT012 OVC025
     FM121400 20003KT 3SM -RA BR OVC012=



000
FTUS46 KSEW 111724
TAFHQM
TAF
KHQM 111724Z 1118/1218 07009KT 6SM -RA BR OVC070
     FM120000 08012KT 4SM -RA BR OVC030
     FM120900 12010KT 4SM -RA BR OVC025
     FM121400 17010KT 4SM -RA BR OVC015=



000
FTUS46 KSEW 111724
TAFBLI
TAF
KBLI 111724Z 1118/1218 02006KT P6SM OVC080
     FM112300 04006KT P6SM -RA OVC050
     FM120600 14008G14KT P6SM -RA OVC035
     FM121300 15012G18KT 4SM -RA BR OVC030
     FM121700 16012G20KT 4SM -RA BR OVC030=



000
FTUS46 KSEW 111724
TAFSEA
TAF
KSEA 111724Z 1118/1224 05004KT P6SM -RA OVC050
     FM120400 15006KT 6SM -RA OVC035
     FM121200 18010KT 5SM -RA BR OVC025=



000
FTUS46 KSEW 111724
TAFOLM
TAF
KOLM 111724Z 1118/1218 00000KT 2SM -RA BR BKN003 OVC080
     FM112000 VRB03KT 5SM -RA BR SCT007 OVC050
     FM120400 16006KT 5SM -RA OVC025
     FM120900 20003KT 3SM -RA BR SCT012 OVC025
     FM121400 20003KT 3SM -RA BR OVC012=



000
FTUS46 KSEW 111724
TAFBFI
TAF
KBFI 111724Z 1118/1218 13007KT P6SM -RA OVC050
     FM120400 14006KT 6SM -RA OVC040
     FM121200 17008KT 6SM -RA OVC030=



000
FTUS46 KSEW 111724
TAFPAE
TAF
KPAE 111724Z 1118/1218 15003KT P6SM -RA OVC050
     FM120400 16010KT 5SM -RA OVC035
     FM121300 18012G18KT 4SM -RA BR OVC025=



000
FTUS46 KSEW 111724
TAFBFI
TAF
KBFI 111724Z 1118/1218 13007KT P6SM -RA OVC050
     FM120400 14006KT 6SM -RA OVC040
     FM121200 17008KT 6SM -RA OVC030=



000
FTUS46 KSEW 111724
TAFPAE
TAF
KPAE 111724Z 1118/1218 15003KT P6SM -RA OVC050
     FM120400 16010KT 5SM -RA OVC035
     FM121300 18012G18KT 4SM -RA BR OVC025=



000
FTUS46 KSEW 111724
TAFCLM
TAF
KCLM 111724Z 1118/1218 11003KT 3SM -RA BR OVC005
     FM120600 VRB03KT P6SM -RA SCT015 OVC050=



000
FTUS46 KSEW 111724
TAFCLM
TAF
KCLM 111724Z 1118/1218 11003KT 3SM -RA BR OVC005
     FM120600 VRB03KT P6SM -RA SCT015 OVC050=



000
FTUS46 KSEW 111503 AAA
TAFOLM
TAF AMD
KOLM 111503Z 1115/1212 16004KT 3SM -RA BR OVC003
     FM111800 VRB04KT 5SM -RA BR SCT010 OVC040
     FM120400 16006KT 5SM -RA OVC025=



000
FTUS46 KSEW 111502 AAB
TAFCLM
TAF AMD
KCLM 111502Z 1115/1212 14003KT 3SM BR OVC004
     FM111700 09006KT P6SM BKN050 OVC090
     FM111800 09006KT P6SM -RA OVC040
     FM120000 09006KT 5SM -RA OVC025=



000
FTUS46 KSEW 111501 AAA
TAFBFI
TAF AMD
KBFI 111501Z 1115/1212 00000KT P6SM OVC100
     FM111700 03006KT P6SM BKN050 OVC090
     FM112100 VRB04KT P6SM -RA OVC040
     FM120400 16006KT 5SM -RA OVC025=



000
FTUS46 KSEW 111501 AAA
TAFBLI
TAF AMD
KBLI 111501Z 1115/1212 03005KT P6SM OVC100
     FM111700 03006KT P6SM BKN050 OVC090
     FM112300 VRB04KT P6SM -RA OVC040
     FM120600 16008KT 5SM -RA OVC025=



000
FTUS46 KSEW 111418 AAA
TAFSEA
TAF AMD
KSEA 111418Z 1114/1218 03006KT P6SM BKN120 OVC200
     FM111700 03006KT P6SM BKN050 OVC090
     FM112100 VRB04KT P6SM -RA OVC040
     FM120400 16006KT 5SM -RA OVC025=



000
FTUS46 KSEW 111209 AAA
TAFCLM
TAF AMD
KCLM 111209Z 1112/1212 VRB03KT P6SM SCT004 BKN120 OVC200
      TEMPO 1112/1116 4SM BR BKN004 OVC120
     FM111700 09006KT P6SM BKN050 OVC090
     FM111800 09006KT P6SM -RA OVC040
     FM120000 09006KT 5SM -RA OVC025=



000
FTUS46 KSEW 111209 AAA
TAFCLM
TAF AMD
KCLM 111209Z 1112/1212 VRB03KT P6SM SCT004 BKN120 OVC200
      TEMPO 1112/1116 4SM BR BKN004 OVC120
     FM111700 09006KT P6SM BKN050 OVC090
     FM111800 09006KT P6SM -RA OVC040
     FM120000 09006KT 5SM -RA OVC025=



000
FTUS46 KSEW 111131
TAFSEA
TAF
KSEA 111131Z 1112/1218 03006KT P6SM BKN120 OVC200
     FM111700 03006KT P6SM BKN050 OVC090
     FM112100 VRB04KT P6SM -RA OVC040
     FM120400 16006KT 5SM -RA OVC025=



000
FTUS46 KSEW 111131
TAFCLM
TAF
KCLM 111131Z 1112/1212 VRB03KT P6SM BKN120 OVC200
     FM111700 09006KT P6SM BKN050 OVC090
     FM111800 09006KT P6SM -RA OVC040
     FM120000 09006KT 5SM -RA OVC025=



000
FTUS46 KSEW 111131
TAFBLI
TAF
KBLI 111131Z 1112/1212 00000KT 3SM BR SCT002 OVC120
      TEMPO 1112/1116 1SM BR BKN002
     FM111700 03006KT P6SM BKN050 OVC090
     FM112300 VRB04KT P6SM -RA OVC040
     FM120600 16008KT 5SM -RA OVC025=



000
FTUS46 KSEW 111131
TAFOLM
TAF
KOLM 111131Z 1112/1212 02004KT 2SM BR BKN002 OVC120
      TEMPO 1112/1116 1/2SM FG VV002
     FM111600 03006KT 5SM BR SCT005 BKN050 OVC090
     FM111800 VRB04KT 5SM -RA BR OVC040
     FM120400 16006KT 5SM -RA OVC025=



000
FTUS46 KSEW 111131
TAFHQM
TAF
KHQM 111131Z 1112/1212 06006KT P6SM OVC100
     FM111600 09010KT 5SM -RA BR OVC040
     FM120000 14012KT 5SM -RA BR BKN015 OVC030
     FM120500 18010KT P6SM -SHRA BKN015 BKN040=



000
FTUS46 KSEW 111131
TAFPAE
TAF
KPAE 111131Z 1112/1212 10006KT P6SM BKN120 OVC200
     FM111700 12008KT P6SM BKN050 OVC090
     FM112100 14010KT P6SM -RA OVC040
     FM120400 16010KT 5SM -RA OVC025=



000
FTUS46 KSEW 111131
TAFCLM
TAF
KCLM 111131Z 1112/1212 VRB03KT P6SM BKN120 OVC200
     FM111700 09006KT P6SM BKN050 OVC090
     FM111800 09006KT P6SM -RA OVC040
     FM120000 09006KT 5SM -RA OVC025=



000
FTUS46 KSEW 111131
TAFPAE
TAF
KPAE 111131Z 1112/1212 10006KT P6SM BKN120 OVC200
     FM111700 12008KT P6SM BKN050 OVC090
     FM112100 14010KT P6SM -RA OVC040
     FM120400 16010KT 5SM -RA OVC025=



000
FTUS46 KSEW 111131
TAFOLM
TAF
KOLM 111131Z 1112/1212 02004KT 2SM BR BKN002 OVC120
      TEMPO 1112/1116 1/2SM FG VV002
     FM111600 03006KT 5SM BR SCT005 BKN050 OVC090
     FM111800 VRB04KT 5SM -RA BR OVC040
     FM120400 16006KT 5SM -RA OVC025=



000
FTUS46 KSEW 111131
TAFSEA
TAF
KSEA 111131Z 1112/1218 03006KT P6SM BKN120 OVC200
     FM111700 03006KT P6SM BKN050 OVC090
     FM112100 VRB04KT P6SM -RA OVC040
     FM120400 16006KT 5SM -RA OVC025=



000
FTUS46 KSEW 111131
TAFHQM
TAF
KHQM 111131Z 1112/1212 06006KT P6SM OVC100
     FM111600 09010KT 5SM -RA BR OVC040
     FM120000 14012KT 5SM -RA BR BKN015 OVC030
     FM120500 18010KT P6SM -SHRA BKN015 BKN040=



000
FTUS46 KSEW 111131
TAFBFI
TAF
KBFI 111131Z 1112/1212 00000KT P6SM BKN120 OVC200
      TEMPO 1112/1116 3SM BR SCT005 OVC120
     FM111700 03006KT P6SM BKN050 OVC090
     FM112100 VRB04KT P6SM -RA OVC040
     FM120400 16006KT 5SM -RA OVC025=



000
FTUS46 KSEW 111131
TAFBLI
TAF
KBLI 111131Z 1112/1212 00000KT 3SM BR SCT002 OVC120
      TEMPO 1112/1116 1SM BR BKN002
     FM111700 03006KT P6SM BKN050 OVC090
     FM112300 VRB04KT P6SM -RA OVC040
     FM120600 16008KT 5SM -RA OVC025=



000
FTUS46 KSEW 111131
TAFBFI
TAF
KBFI 111131Z 1112/1212 00000KT P6SM BKN120 OVC200
      TEMPO 1112/1116 3SM BR SCT005 OVC120
     FM111700 03006KT P6SM BKN050 OVC090
     FM112100 VRB04KT P6SM -RA OVC040
     FM120400 16006KT 5SM -RA OVC025=



000
FTUS46 KSEW 110907 AAA
TAFPAE
TAF AMD
KPAE 110907Z 1109/1206 15006KT P6SM SCT015 BKN200
      TEMPO 1109/1112 4SM BR
     FM111600 12008KT P6SM SCT015 BKN050
     FM112100 14010KT P6SM -RA OVC045
     FM120200 16010KT 5SM -RA OVC035=



000
FTUS46 KSEW 110905 AAA
TAFBFI
TAF AMD
KBFI 110905Z 1109/1206 VRB03KT P6SM SCT020 BKN200
      TEMPO 1109/1112 3SM BR
     FM111600 VRB04KT P6SM SCT020 BKN050
     FM112100 12006KT P6SM -RA OVC040
     FM120200 16006KT 5SM -RA OVC030=



000
FTUS46 KSEW 110904 AAA
TAFSEA
TAF AMD
KSEA 110904Z 1109/1212 04004KT P6SM SCT015 BKN200
     FM111600 VRB04KT P6SM SCT020 BKN050
     FM112100 12006KT P6SM -RA OVC040
     FM120200 16006KT 5SM -RA OVC030=



000
FTUS46 KSEW 110904 AAA
TAFSEA
TAF AMD
KSEA 110904Z 1109/1212 04004KT P6SM SCT015 BKN200
     FM111600 VRB04KT P6SM SCT020 BKN050
     FM112100 12006KT P6SM -RA OVC040
     FM120200 16006KT 5SM -RA OVC030=



000
FTUS46 KSEW 110826 AAB
TAFOLM
TAF AMD
KOLM 110826Z 1108/1206 VRB03KT 5SM BR SCT005 BKN150
      TEMPO 1109/1112 2SM BR BKN005
     FM111200 VRB03KT P6SM SCT010 BKN050
     FM112100 VRB04KT 5SM -RA BR SCT010 OVC050=



000
FTUS46 KSEW 110824 AAA
TAFBLI
TAF AMD
KBLI 110824Z 1108/1206 00000KT 3SM BR BKN003
      TEMPO 1108/1112 1/2SM FG VV002
     FM111300 06006KT P6SM BKN005 BKN050
     FM111800 06006KT P6SM SCT010 BKN050
     FM112100 06006KT P6SM -RA OVC040
     FM120500 16012KT 5SM -RA OVC035=



000
FTUS46 KSEW 110824 AAA
TAFBLI
TAF AMD
KBLI 110824Z 1108/1206 00000KT 3SM BR BKN003
      TEMPO 1108/1112 1/2SM FG VV002
     FM111300 06006KT P6SM BKN005 BKN050
     FM111800 06006KT P6SM SCT010 BKN050
     FM112100 06006KT P6SM -RA OVC040
     FM120500 16012KT 5SM -RA OVC035=



000
FTUS46 KSEW 110626 AAA
TAFOLM
TAF AMD
KOLM 110626Z 1106/1206 00000KT 2SM BR BKN011
      TEMPO 1106/1110 1/4SM FG VV002
     FM111000 00000KT 2SM BR BKN003 BKN050
     FM111600 VRB04KT 5SM BR SCT007 OVC050
     FM112100 VRB04KT 5SM -RA BR SCT010 OVC050=



000
FTUS46 KSEW 110626 AAA
TAFOLM
TAF AMD
KOLM 110626Z 1106/1206 00000KT 2SM BR BKN011
      TEMPO 1106/1110 1/4SM FG VV002
     FM111000 00000KT 2SM BR BKN003 BKN050
     FM111600 VRB04KT 5SM BR SCT007 OVC050
     FM112100 VRB04KT 5SM -RA BR SCT010 OVC050=



    US Dept of Commerce
    National Oceanic and Atmospheric Administration
    National Weather Service
    1325 East West Highway
    Silver Spring, MD 20910
    Page Author: NWS Internet Services Team
Disclaimer
Information Quality
Credits
Glossary
Privacy Policy
Freedom of Information Act (FOIA)
About Us
Career Opportunities